Warning: fopen(/var/www/metroair/shared/private/wxdata/metar/AVWX/metar_EDDF): failed to open stream: Permission denied in /var/www/metroair/shared/private/library/orig_library/lib_airport.php on line 346

Warning: fwrite() expects parameter 1 to be resource, boolean given in /var/www/metroair/shared/private/library/orig_library/lib_airport.php on line 347

Warning: fclose() expects parameter 1 to be resource, boolean given in /var/www/metroair/shared/private/library/orig_library/lib_airport.php on line 348

Warning: fopen(/var/www/metroair/shared/private/wxdata/TAF/AVWX/taf_EDDF): failed to open stream: Permission denied in /var/www/metroair/shared/private/library/orig_library/lib_airport.php on line 533

Warning: fwrite() expects parameter 1 to be resource, boolean given in /var/www/metroair/shared/private/library/orig_library/lib_airport.php on line 534

Warning: fclose() expects parameter 1 to be resource, boolean given in /var/www/metroair/shared/private/library/orig_library/lib_airport.php on line 535

MET6040 - Frankfurt to London Heathrow

Boeing 737-800
G-FLII - Fly UK
1 hr 10 mins
354 nm
Fly UK Codeshare - Daily

Departure

Departing from
Frankfurt (FRA)
Departure gate
Terminal 1B
Scheduled Departure
GMT 1420
Local 1520
METAR EDDF 220620Z 22016KT 9999 -RA FEW011 SCT015 BKN024 11/08 Q1011 NOSIG
TAF TAF EDDF 220500Z 2206/2312 22015KT 9999 BKN020 TEMPO 2208/2312 22015G30KT
  • No charts available

Arrival

Arriving at
London Heathrow (LHR)
Arrival gate
Terminal 3
Scheduled Arrival
GMT 1530
Local 1530
METAR EGLL 220550Z AUTO 25015KT 9999 OVC013 11/09 Q1009 NOSIG
TAF TAF EGLL 220456Z 2206/2312 25018G28KT 9999 BKN018 PROB30 TEMPO 2206/2210 BKN014 BECMG 2216/2219 24014KT PROB30 TEMPO 2217/2303 8000 -RA BKN014 BECMG 2304/2306 22018G28KT TEMPO 2307/2310 22028G42KT 6000 SHRA BECMG 2310/2312 26020G35KT TEMPO 2310/2312 27030

Route Map

Planning Resources

SOBR4F SOBRA Y180 BITBU Y181 MAKIK UY181 DEMUL UM624 BUB UL608 LOGAN LAM3A
EDDF ROLIS KOK DVR EGLL
ULKI1S ULKIG Y180 BITBU Y181 MAKIK UY181 DEMUL UM624 BUB UL608 LOGAN LAM3A
EDDF RUDUS UBIDU AMASI UL607 KONAN DVR BIG EGLL
DCT SOBRA Y180 BITBU Y181 MAKIK UY181 DEMUL UM624 BUB UL608 LOGAN DCT
Route:
OFP Layout:
Units:
Detailed Navlog:
ETOPS Planning:
Plan Stepclimbs:
Runway Analysis:
Include NOTAMS:
FIR NOTAMS:
Flight Maps:

Return Flights

MET6039 (Operated by Fly UK)
Boeing 737-800
1240 GMT

Popularity

Hub Current Bids PiReps this month Total PiReps
KMCI 0 0 4
KLAX 0 0 8
KBOS 0 0 0